sensor_id;sensor_type;location;lat;lon;timestamp;temperature;humidity
53314;DHT22;39202;51.468;7.146;2022-10-23T00:03:56;24.00;44.30
53314;DHT22;39202;51.468;7.146;2022-10-23T00:08:58;24.10;44.40
53314;DHT22;39202;51.468;7.146;2022-10-23T00:14:01;24.10;44.30
53314;DHT22;39202;51.468;7.146;2022-10-23T00:19:05;24.10;44.30
53314;DHT22;39202;51.468;7.146;2022-10-23T00:24:07;24.10;44.30
53314;DHT22;39202;51.468;7.146;2022-10-23T00:29:09;24.10;44.30
53314;DHT22;39202;51.468;7.146;2022-10-23T00:34:12;24.10;44.30
53314;DHT22;39202;51.468;7.146;2022-10-23T00:39:14;24.00;44.30
53314;DHT22;39202;51.468;7.146;2022-10-23T00:49:54;24.00;44.30
53314;DHT22;39202;51.468;7.146;2022-10-23T00:54:56;24.00;44.30
53314;DHT22;39202;51.468;7.146;2022-10-23T00:59:58;24.00;44.30
53314;DHT22;39202;51.468;7.146;2022-10-23T01:05:01;24.00;44.30
53314;DHT22;39202;51.468;7.146;2022-10-23T01:10:10;24.00;44.30
53314;DHT22;39202;51.468;7.146;2022-10-23T01:15:19;24.00;44.30
53314;DHT22;39202;51.468;7.146;2022-10-23T01:20:31;24.10;44.30
53314;DHT22;39202;51.468;7.146;2022-10-23T01:25:50;24.00;44.30
53314;DHT22;39202;51.468;7.146;2022-10-23T01:30:55;24.00;44.30
53314;DHT22;39202;51.468;7.146;2022-10-23T01:36:00;24.00;44.30
53314;DHT22;39202;51.468;7.146;2022-10-23T01:41:08;24.00;44.30
53314;DHT22;39202;51.468;7.146;2022-10-23T01:46:15;24.00;44.30
53314;DHT22;39202;51.468;7.146;2022-10-23T01:51:18;23.90;44.30
53314;DHT22;39202;51.468;7.146;2022-10-23T01:56:24;24.50;44.60
53314;DHT22;39202;51.468;7.146;2022-10-23T02:01:29;23.90;44.40
53314;DHT22;39202;51.468;7.146;2022-10-23T02:06:32;23.90;44.40
53314;DHT22;39202;51.468;7.146;2022-10-23T02:11:38;23.90;44.40
53314;DHT22;39202;51.468;7.146;2022-10-23T02:16:46;23.90;44.40
53314;DHT22;39202;51.468;7.146;2022-10-23T02:21:53;23.90;44.40
53314;DHT22;39202;51.468;7.146;2022-10-23T02:27:01;23.90;44.30
53314;DHT22;39202;51.468;7.146;2022-10-23T02:32:05;23.90;44.40
53314;DHT22;39202;51.468;7.146;2022-10-23T02:37:07;23.80;44.40
53314;DHT22;39202;51.468;7.146;2022-10-23T02:42:13;23.80;44.40
53314;DHT22;39202;51.468;7.146;2022-10-23T02:47:31;23.80;44.40
53314;DHT22;39202;51.468;7.146;2022-10-23T02:52:39;23.80;44.40
53314;DHT22;39202;51.468;7.146;2022-10-23T02:57:46;23.80;44.40
53314;DHT22;39202;51.468;7.146;2022-10-23T03:02:54;23.80;44.40
53314;DHT22;39202;51.468;7.146;2022-10-23T03:07:57;23.80;45.00
53314;DHT22;39202;51.468;7.146;2022-10-23T03:12:58;23.80;44.40
53314;DHT22;39202;51.468;7.146;2022-10-23T03:18:01;23.90;44.40
53314;DHT22;39202;51.468;7.146;2022-10-23T03:23:03;23.90;44.40
53314;DHT22;39202;51.468;7.146;2022-10-23T03:28:05;23.80;44.30
53314;DHT22;39202;51.468;7.146;2022-10-23T03:33:08;23.80;44.40
53314;DHT22;39202;51.468;7.146;2022-10-23T03:38:09;23.80;44.40
53314;DHT22;39202;51.468;7.146;2022-10-23T03:43:11;23.80;44.30
53314;DHT22;39202;51.468;7.146;2022-10-23T03:48:14;23.90;44.30
53314;DHT22;39202;51.468;7.146;2022-10-23T03:53:16;23.90;44.30
53314;DHT22;39202;51.468;7.146;2022-10-23T03:58:18;23.90;44.30
53314;DHT22;39202;51.468;7.146;2022-10-23T04:03:21;23.90;44.30
53314;DHT22;39202;51.468;7.146;2022-10-23T04:08:22;23.80;44.30
53314;DHT22;39202;51.468;7.146;2022-10-23T04:13:24;23.80;44.40
53314;DHT22;39202;51.468;7.146;2022-10-23T04:18:27;23.80;44.30
53314;DHT22;39202;51.468;7.146;2022-10-23T04:23:29;23.80;44.30
53314;DHT22;39202;51.468;7.146;2022-10-23T04:28:30;23.80;44.30
53314;DHT22;39202;51.468;7.146;2022-10-23T04:33:33;23.90;44.30
53314;DHT22;39202;51.468;7.146;2022-10-23T04:38:35;23.90;44.30
53314;DHT22;39202;51.468;7.146;2022-10-23T04:43:37;23.80;44.30
53314;DHT22;39202;51.468;7.146;2022-10-23T04:48:40;23.80;44.40
53314;DHT22;39202;51.468;7.146;2022-10-23T04:53:42;23.80;44.30
53314;DHT22;39202;51.468;7.146;2022-10-23T04:58:43;23.80;44.40
53314;DHT22;39202;51.468;7.146;2022-10-23T05:03:46;23.80;44.40
53314;DHT22;39202;51.468;7.146;2022-10-23T05:08:48;23.80;44.40
53314;DHT22;39202;51.468;7.146;2022-10-23T05:13:50;23.80;44.40
53314;DHT22;39202;51.468;7.146;2022-10-23T05:18:53;23.80;44.40
53314;DHT22;39202;51.468;7.146;2022-10-23T05:23:55;23.80;44.40
53314;DHT22;39202;51.468;7.146;2022-10-23T05:28:56;23.80;44.40
53314;DHT22;39202;51.468;7.146;2022-10-23T05:39:03;23.70;44.90
53314;DHT22;39202;51.468;7.146;2022-10-23T05:44:05;23.60;44.60
53314;DHT22;39202;51.468;7.146;2022-10-23T05:49:08;23.60;44.60
53314;DHT22;39202;51.468;7.146;2022-10-23T05:54:10;23.60;44.60
53314;DHT22;39202;51.468;7.146;2022-10-23T05:59:11;23.50;44.60
53314;DHT22;39202;51.468;7.146;2022-10-23T06:04:14;23.50;44.60
53314;DHT22;39202;51.468;7.146;2022-10-23T06:09:16;23.50;44.70
53314;DHT22;39202;51.468;7.146;2022-10-23T06:14:18;23.50;44.70
53314;DHT22;39202;51.468;7.146;2022-10-23T06:19:21;23.50;44.70
53314;DHT22;39202;51.468;7.146;2022-10-23T06:24:23;23.50;44.80
53314;DHT22;39202;51.468;7.146;2022-10-23T06:29:24;23.50;44.80
53314;DHT22;39202;51.468;7.146;2022-10-23T06:34:27;23.40;44.80
53314;DHT22;39202;51.468;7.146;2022-10-23T06:39:29;23.40;44.80
53314;DHT22;39202;51.468;7.146;2022-10-23T06:44:31;23.40;44.80
53314;DHT22;39202;51.468;7.146;2022-10-23T06:49:34;23.40;44.80
53314;DHT22;39202;51.468;7.146;2022-10-23T06:54:36;23.40;44.80
53314;DHT22;39202;51.468;7.146;2022-10-23T06:59:37;23.40;44.80
53314;DHT22;39202;51.468;7.146;2022-10-23T07:04:40;23.40;44.80
53314;DHT22;39202;51.468;7.146;2022-10-23T07:09:42;23.40;44.90
53314;DHT22;39202;51.468;7.146;2022-10-23T07:14:44;23.40;44.80
53314;DHT22;39202;51.468;7.146;2022-10-23T07:19:47;23.40;44.80
53314;DHT22;39202;51.468;7.146;2022-10-23T07:24:49;23.40;44.90
53314;DHT22;39202;51.468;7.146;2022-10-23T07:29:51;23.40;44.90
53314;DHT22;39202;51.468;7.146;2022-10-23T07:34:54;23.40;44.90
53314;DHT22;39202;51.468;7.146;2022-10-23T07:39:56;23.40;44.90
53314;DHT22;39202;51.468;7.146;2022-10-23T07:44:57;23.40;44.90
53314;DHT22;39202;51.468;7.146;2022-10-23T07:50:00;23.40;44.90
53314;DHT22;39202;51.468;7.146;2022-10-23T07:55:03;23.40;44.90
53314;DHT22;39202;51.468;7.146;2022-10-23T08:00:06;23.40;44.90
53314;DHT22;39202;51.468;7.146;2022-10-23T08:05:09;23.40;44.90
53314;DHT22;39202;51.468;7.146;2022-10-23T08:10:11;23.40;45.00
53314;DHT22;39202;51.468;7.146;2022-10-23T08:15:13;23.40;45.10
53314;DHT22;39202;51.468;7.146;2022-10-23T08:20:16;23.40;45.10
53314;DHT22;39202;51.468;7.146;2022-10-23T08:25:18;23.40;45.10
53314;DHT22;39202;51.468;7.146;2022-10-23T08:30:19;23.50;45.10
53314;DHT22;39202;51.468;7.146;2022-10-23T08:35:23;23.50;45.20
53314;DHT22;39202;51.468;7.146;2022-10-23T08:40:24;23.50;45.30
53314;DHT22;39202;51.468;7.146;2022-10-23T08:45:30;23.50;45.40
53314;DHT22;39202;51.468;7.146;2022-10-23T08:50:38;23.50;45.40
53314;DHT22;39202;51.468;7.146;2022-10-23T08:55:44;23.50;45.50
53314;DHT22;39202;51.468;7.146;2022-10-23T09:00:48;23.60;45.60
53314;DHT22;39202;51.468;7.146;2022-10-23T09:05:59;23.60;45.60
53314;DHT22;39202;51.468;7.146;2022-10-23T09:11:06;23.60;45.70
53314;DHT22;39202;51.468;7.146;2022-10-23T09:16:17;23.70;45.80
53314;DHT22;39202;51.468;7.146;2022-10-23T09:21:26;23.70;45.80
53314;DHT22;39202;51.468;7.146;2022-10-23T09:26:28;23.70;45.80
53314;DHT22;39202;51.468;7.146;2022-10-23T09:31:30;23.70;45.70
53314;DHT22;39202;51.468;7.146;2022-10-23T09:36:33;23.70;45.60
53314;DHT22;39202;51.468;7.146;2022-10-23T09:41:37;23.70;45.70
53314;DHT22;39202;51.468;7.146;2022-10-23T09:46:40;23.70;45.70
53314;DHT22;39202;51.468;7.146;2022-10-23T09:51:52;23.80;45.70
53314;DHT22;39202;51.468;7.146;2022-10-23T09:56:55;23.80;45.80
53314;DHT22;39202;51.468;7.146;2022-10-23T10:02:01;23.80;45.70
53314;DHT22;39202;51.468;7.146;2022-10-23T10:07:17;23.80;45.80
53314;DHT22;39202;51.468;7.146;2022-10-23T10:12:34;23.80;45.80
53314;DHT22;39202;51.468;7.146;2022-10-23T10:17:46;23.80;45.90
53314;DHT22;39202;51.468;7.146;2022-10-23T10:22:56;23.80;45.80
53314;DHT22;39202;51.468;7.146;2022-10-23T10:28:15;23.80;45.80
53314;DHT22;39202;51.468;7.146;2022-10-23T10:33:26;23.80;45.90
53314;DHT22;39202;51.468;7.146;2022-10-23T10:38:49;23.80;45.80
53314;DHT22;39202;51.468;7.146;2022-10-23T10:44:01;23.90;45.90
53314;DHT22;39202;51.468;7.146;2022-10-23T10:49:10;23.90;45.90
53314;DHT22;39202;51.468;7.146;2022-10-23T10:54:24;23.80;45.90
53314;DHT22;39202;51.468;7.146;2022-10-23T10:59:35;23.80;45.90
53314;DHT22;39202;51.468;7.146;2022-10-23T11:04:42;23.80;45.90
53314;DHT22;39202;51.468;7.146;2022-10-23T11:09:46;23.90;45.90
53314;DHT22;39202;51.468;7.146;2022-10-23T11:14:49;23.90;46.00
53314;DHT22;39202;51.468;7.146;2022-10-23T11:19:56;23.90;45.90
53314;DHT22;39202;51.468;7.146;2022-10-23T11:25:24;23.90;46.00
53314;DHT22;39202;51.468;7.146;2022-10-23T11:30:35;23.90;46.00
53314;DHT22;39202;51.468;7.146;2022-10-23T11:35:53;23.90;46.00
53314;DHT22;39202;51.468;7.146;2022-10-23T11:41:01;23.90;46.10
53314;DHT22;39202;51.468;7.146;2022-10-23T11:46:14;23.90;46.10
53314;DHT22;39202;51.468;7.146;2022-10-23T11:51:31;24.00;46.20
53314;DHT22;39202;51.468;7.146;2022-10-23T11:56:35;24.00;46.10
53314;DHT22;39202;51.468;7.146;2022-10-23T12:01:40;24.00;46.20
53314;DHT22;39202;51.468;7.146;2022-10-23T12:06:45;24.00;46.20
53314;DHT22;39202;51.468;7.146;2022-10-23T12:12:12;24.00;46.10
53314;DHT22;39202;51.468;7.146;2022-10-23T12:17:28;24.00;46.30
53314;DHT22;39202;51.468;7.146;2022-10-23T12:22:36;24.00;46.90
53314;DHT22;39202;51.468;7.146;2022-10-23T12:27:44;24.00;46.20
53314;DHT22;39202;51.468;7.146;2022-10-23T12:38:20;24.10;46.40
53314;DHT22;39202;51.468;7.146;2022-10-23T12:43:27;24.10;46.30
53314;DHT22;39202;51.468;7.146;2022-10-23T12:48:32;24.10;46.40
53314;DHT22;39202;51.468;7.146;2022-10-23T12:53:34;24.10;46.50
53314;DHT22;39202;51.468;7.146;2022-10-23T12:58:45;24.10;46.50
53314;DHT22;39202;51.468;7.146;2022-10-23T13:03:48;24.10;46.50
53314;DHT22;39202;51.468;7.146;2022-10-23T13:08:50;24.20;46.50
53314;DHT22;39202;51.468;7.146;2022-10-23T13:13:54;24.20;47.10
53314;DHT22;39202;51.468;7.146;2022-10-23T13:18:55;24.20;46.50
53314;DHT22;39202;51.468;7.146;2022-10-23T13:23:57;24.20;46.50
53314;DHT22;39202;51.468;7.146;2022-10-23T13:29:01;24.20;46.60
53314;DHT22;39202;51.468;7.146;2022-10-23T13:34:13;24.20;46.60
53314;DHT22;39202;51.468;7.146;2022-10-23T13:39:22;24.20;46.60
53314;DHT22;39202;51.468;7.146;2022-10-23T13:44:26;24.20;47.20
53314;DHT22;39202;51.468;7.146;2022-10-23T13:49:28;24.20;46.50
53314;DHT22;39202;51.468;7.146;2022-10-23T13:54:30;24.20;46.50
53314;DHT22;39202;51.468;7.146;2022-10-23T13:59:33;24.20;46.50
53314;DHT22;39202;51.468;7.146;2022-10-23T14:04:34;24.20;46.60
53314;DHT22;39202;51.468;7.146;2022-10-23T14:09:36;24.30;46.50
53314;DHT22;39202;51.468;7.146;2022-10-23T14:14:39;24.30;46.60
53314;DHT22;39202;51.468;7.146;2022-10-23T14:19:41;24.30;46.60
53314;DHT22;39202;51.468;7.146;2022-10-23T14:24:43;24.20;46.60
53314;DHT22;39202;51.468;7.146;2022-10-23T14:29:46;24.20;46.60
53314;DHT22;39202;51.468;7.146;2022-10-23T14:34:50;24.20;46.60
53314;DHT22;39202;51.468;7.146;2022-10-23T14:39:52;24.20;46.60
53314;DHT22;39202;51.468;7.146;2022-10-23T14:44:55;24.20;46.40
53314;DHT22;39202;51.468;7.146;2022-10-23T14:49:56;24.20;46.50
53314;DHT22;39202;51.468;7.146;2022-10-23T14:54:58;24.20;46.40
53314;DHT22;39202;51.468;7.146;2022-10-23T15:00:02;24.20;46.40
53314;DHT22;39202;51.468;7.146;2022-10-23T15:05:05;24.20;46.40
53314;DHT22;39202;51.468;7.146;2022-10-23T15:10:07;24.20;46.40
53314;DHT22;39202;51.468;7.146;2022-10-23T15:15:10;24.20;46.40
53314;DHT22;39202;51.468;7.146;2022-10-23T15:20:12;24.20;46.40
53314;DHT22;39202;51.468;7.146;2022-10-23T15:25:14;24.20;46.40
53314;DHT22;39202;51.468;7.146;2022-10-23T15:30:17;24.20;46.40
53314;DHT22;39202;51.468;7.146;2022-10-23T15:35:19;24.20;46.40
53314;DHT22;39202;51.468;7.146;2022-10-23T15:40:20;24.20;46.40
53314;DHT22;39202;51.468;7.146;2022-10-23T15:45:23;24.20;46.40
53314;DHT22;39202;51.468;7.146;2022-10-23T15:50:25;24.20;46.40
53314;DHT22;39202;51.468;7.146;2022-10-23T15:55:27;24.20;46.40
53314;DHT22;39202;51.468;7.146;2022-10-23T16:00:30;24.20;46.40
53314;DHT22;39202;51.468;7.146;2022-10-23T16:05:35;24.20;46.40
53314;DHT22;39202;51.468;7.146;2022-10-23T16:10:38;24.20;46.40
53314;DHT22;39202;51.468;7.146;2022-10-23T16:15:42;24.20;46.40
53314;DHT22;39202;51.468;7.146;2022-10-23T16:20:43;24.20;46.40
53314;DHT22;39202;51.468;7.146;2022-10-23T16:25:45;24.20;46.40
53314;DHT22;39202;51.468;7.146;2022-10-23T16:30:48;24.20;46.40
53314;DHT22;39202;51.468;7.146;2022-10-23T16:35:50;24.20;46.40
53314;DHT22;39202;51.468;7.146;2022-10-23T16:40:52;24.20;46.50
53314;DHT22;39202;51.468;7.146;2022-10-23T16:46:07;24.20;46.50
53314;DHT22;39202;51.468;7.146;2022-10-23T16:51:11;24.20;46.60
53314;DHT22;39202;51.468;7.146;2022-10-23T16:56:15;24.20;46.60
53314;DHT22;39202;51.468;7.146;2022-10-23T17:01:20;24.20;46.60
53314;DHT22;39202;51.468;7.146;2022-10-23T17:06:23;24.20;46.60
53314;DHT22;39202;51.468;7.146;2022-10-23T17:11:26;24.30;46.50
53314;DHT22;39202;51.468;7.146;2022-10-23T17:16:32;24.30;46.50
53314;DHT22;39202;51.468;7.146;2022-10-23T17:21:36;24.20;46.50
53314;DHT22;39202;51.468;7.146;2022-10-23T17:26:38;24.20;46.60
53314;DHT22;39202;51.468;7.146;2022-10-23T17:31:44;24.20;46.60
53314;DHT22;39202;51.468;7.146;2022-10-23T17:36:49;24.20;46.70
53314;DHT22;39202;51.468;7.146;2022-10-23T17:41:51;24.20;46.70
53314;DHT22;39202;51.468;7.146;2022-10-23T17:46:55;24.20;46.70
53314;DHT22;39202;51.468;7.146;2022-10-23T17:51:56;24.20;46.70
53314;DHT22;39202;51.468;7.146;2022-10-23T17:56:58;24.20;46.70
53314;DHT22;39202;51.468;7.146;2022-10-23T18:02:01;24.20;46.70
53314;DHT22;39202;51.468;7.146;2022-10-23T18:07:03;24.20;46.60
53314;DHT22;39202;51.468;7.146;2022-10-23T18:12:05;24.20;46.60
53314;DHT22;39202;51.468;7.146;2022-10-23T18:17:08;24.20;46.70
53314;DHT22;39202;51.468;7.146;2022-10-23T18:22:09;24.20;46.70
53314;DHT22;39202;51.468;7.146;2022-10-23T18:27:11;24.20;46.60
53314;DHT22;39202;51.468;7.146;2022-10-23T18:32:14;24.20;46.60
53314;DHT22;39202;51.468;7.146;2022-10-23T18:37:16;24.20;46.70
53314;DHT22;39202;51.468;7.146;2022-10-23T18:42:18;24.10;46.60
53314;DHT22;39202;51.468;7.146;2022-10-23T18:47:21;24.10;46.60
53314;DHT22;39202;51.468;7.146;2022-10-23T18:52:22;24.10;46.60
53314;DHT22;39202;51.468;7.146;2022-10-23T18:57:24;24.10;46.60
53314;DHT22;39202;51.468;7.146;2022-10-23T19:02:27;24.20;46.60
53314;DHT22;39202;51.468;7.146;2022-10-23T19:07:29;24.10;46.60
53314;DHT22;39202;51.468;7.146;2022-10-23T19:12:30;24.10;46.60
53314;DHT22;39202;51.468;7.146;2022-10-23T19:17:33;24.10;46.60
53314;DHT22;39202;51.468;7.146;2022-10-23T19:22:36;24.10;46.60
53314;DHT22;39202;51.468;7.146;2022-10-23T19:27:41;24.10;47.20
53314;DHT22;39202;51.468;7.146;2022-10-23T19:32:45;24.10;46.60
53314;DHT22;39202;51.468;7.146;2022-10-23T19:37:47;24.10;46.60
53314;DHT22;39202;51.468;7.146;2022-10-23T19:42:49;24.10;46.60
53314;DHT22;39202;51.468;7.146;2022-10-23T19:47:52;24.10;46.60
53314;DHT22;39202;51.468;7.146;2022-10-23T19:52:53;24.10;46.60
53314;DHT22;39202;51.468;7.146;2022-10-23T19:57:55;24.10;46.60
53314;DHT22;39202;51.468;7.146;2022-10-23T20:02:58;24.10;46.60
53314;DHT22;39202;51.468;7.146;2022-10-23T20:08:00;24.10;46.60
53314;DHT22;39202;51.468;7.146;2022-10-23T20:13:01;24.10;46.60
53314;DHT22;39202;51.468;7.146;2022-10-23T20:18:04;24.10;46.50
53314;DHT22;39202;51.468;7.146;2022-10-23T20:23:06;24.00;46.50
53314;DHT22;39202;51.468;7.146;2022-10-23T20:28:08;24.00;46.50
53314;DHT22;39202;51.468;7.146;2022-10-23T20:33:11;24.00;46.50
53314;DHT22;39202;51.468;7.146;2022-10-23T20:38:13;24.00;46.60
53314;DHT22;39202;51.468;7.146;2022-10-23T20:43:14;24.00;46.50
53314;DHT22;39202;51.468;7.146;2022-10-23T20:48:17;24.00;46.50
53314;DHT22;39202;51.468;7.146;2022-10-23T20:53:19;24.00;46.50
53314;DHT22;39202;51.468;7.146;2022-10-23T20:58:21;24.00;46.50
53314;DHT22;39202;51.468;7.146;2022-10-23T21:03:24;24.00;46.50
53314;DHT22;39202;51.468;7.146;2022-10-23T21:08:25;24.00;47.20
53314;DHT22;39202;51.468;7.146;2022-10-23T21:13:28;24.00;46.60
53314;DHT22;39202;51.468;7.146;2022-10-23T21:18:31;24.00;46.50
53314;DHT22;39202;51.468;7.146;2022-10-23T21:23:32;24.00;46.50
53314;DHT22;39202;51.468;7.146;2022-10-23T21:28:34;24.00;46.50
53314;DHT22;39202;51.468;7.146;2022-10-23T21:33:38;24.00;46.50
53314;DHT22;39202;51.468;7.146;2022-10-23T21:38:40;24.00;46.50
53314;DHT22;39202;51.468;7.146;2022-10-23T21:43:42;24.00;46.50
53314;DHT22;39202;51.468;7.146;2022-10-23T21:48:45;24.00;46.50
53314;DHT22;39202;51.468;7.146;2022-10-23T21:53:47;24.00;46.50
53314;DHT22;39202;51.468;7.146;2022-10-23T21:58:49;24.00;46.50
53314;DHT22;39202;51.468;7.146;2022-10-23T22:03:52;24.00;46.50
53314;DHT22;39202;51.468;7.146;2022-10-23T22:08:56;24.00;46.50
53314;DHT22;39202;51.468;7.146;2022-10-23T22:13:59;23.90;46.40
53314;DHT22;39202;51.468;7.146;2022-10-23T22:19:02;23.90;46.40
53314;DHT22;39202;51.468;7.146;2022-10-23T22:24:05;23.90;46.40
53314;DHT22;39202;51.468;7.146;2022-10-23T22:29:09;23.90;46.40
53314;DHT22;39202;51.468;7.146;2022-10-23T22:34:15;23.90;46.40
53314;DHT22;39202;51.468;7.146;2022-10-23T22:39:17;23.90;46.40
53314;DHT22;39202;51.468;7.146;2022-10-23T22:44:19;23.90;46.40
53314;DHT22;39202;51.468;7.146;2022-10-23T22:49:22;23.90;46.40
53314;DHT22;39202;51.468;7.146;2022-10-23T22:54:23;23.90;46.40
53314;DHT22;39202;51.468;7.146;2022-10-23T22:59:25;23.90;46.40
53314;DHT22;39202;51.468;7.146;2022-10-23T23:04:28;23.90;46.40
53314;DHT22;39202;51.468;7.146;2022-10-23T23:09:30;23.90;46.40
53314;DHT22;39202;51.468;7.146;2022-10-23T23:14:31;23.90;46.40
53314;DHT22;39202;51.468;7.146;2022-10-23T23:19:35;23.90;46.40
53314;DHT22;39202;51.468;7.146;2022-10-23T23:24:36;23.90;46.40
53314;DHT22;39202;51.468;7.146;2022-10-23T23:29:38;23.90;46.40
53314;DHT22;39202;51.468;7.146;2022-10-23T23:34:41;23.90;46.40
53314;DHT22;39202;51.468;7.146;2022-10-23T23:39:43;23.90;46.40
53314;DHT22;39202;51.468;7.146;2022-10-23T23:44:44;23.90;46.40
53314;DHT22;39202;51.468;7.146;2022-10-23T23:49:47;23.90;46.40
53314;DHT22;39202;51.468;7.146;2022-10-23T23:54:49;23.90;46.40
53314;DHT22;39202;51.468;7.146;2022-10-23T23:59:51;23.90;46.40
